createdAt,value
2018-09-06T10:59:12.012Z,28.30
2018-09-06T11:01:39.613Z,27.86
2018-09-06T11:10:34.313Z,27.40
2018-09-06T11:13:01.729Z,27.40
2018-09-06T11:15:29.206Z,27.33
2018-09-06T11:17:56.696Z,27.28
2018-09-06T11:20:24.032Z,27.21
2018-09-06T11:22:51.439Z,27.03
2018-09-06T11:25:18.856Z,27.00
2018-09-06T11:27:46.376Z,27.03
2018-09-06T11:30:13.640Z,27.05
2018-09-06T11:32:40.864Z,27.05
2018-09-06T11:35:08.233Z,26.98
2018-09-06T11:37:35.663Z,26.77
2018-09-06T11:40:03.125Z,26.71
2018-09-06T11:42:30.538Z,26.68
2018-09-06T11:44:57.855Z,26.78
2018-09-06T11:47:25.198Z,26.78
2018-09-06T11:49:52.638Z,26.76
2018-09-06T11:52:20.055Z,26.85
2018-09-06T11:54:47.575Z,27.07
2018-09-06T11:57:14.945Z,27.10
2018-09-06T11:59:42.303Z,27.15
2018-09-06T12:04:59.692Z,26.36
2018-09-06T12:07:26.982Z,26.29
2018-09-06T12:12:04.086Z,26.29
2018-09-06T12:14:31.607Z,26.37
2018-09-06T12:54:13.290Z,30.27
2018-09-06T12:56:41.031Z,27.44
2018-09-06T12:59:08.609Z,26.53
2018-09-06T13:01:36.339Z,26.38
2018-09-06T13:04:04.184Z,26.36
2018-09-06T13:06:31.756Z,26.38
2018-09-06T13:08:59.687Z,26.45
2018-09-06T13:11:27.430Z,26.53
2018-09-06T13:13:55.587Z,26.59
2018-09-06T13:16:23.312Z,26.58
2018-09-06T13:18:50.976Z,26.58
2018-09-06T13:21:18.606Z,26.63
2018-09-06T13:23:46.463Z,26.62
2018-09-06T13:26:13.713Z,26.64
2018-09-06T13:28:41.520Z,26.77
2018-09-06T13:33:49.391Z,26.56
2018-09-06T13:36:16.963Z,26.59
2018-09-06T13:38:44.680Z,26.58
2018-09-06T13:41:12.310Z,26.61
2018-09-06T13:43:39.884Z,26.65
2018-09-06T13:46:07.796Z,26.60
2018-09-06T13:48:35.535Z,26.56
2018-09-06T13:51:03.446Z,26.59
2018-09-06T13:53:31.146Z,26.59
2018-09-06T13:55:59.295Z,26.63
2018-09-06T13:58:27.291Z,26.60
2018-09-06T14:00:54.988Z,26.62
2018-09-06T14:03:22.660Z,26.60
2018-09-06T14:05:50.580Z,26.61
2018-09-06T14:08:18.357Z,26.59
2018-09-06T14:10:45.964Z,26.61
2018-09-06T14:13:13.743Z,26.64
2018-09-06T14:15:41.592Z,26.67
2018-09-06T14:18:09.359Z,26.64
2018-09-06T14:20:36.951Z,26.68
2018-09-06T14:23:04.842Z,26.73
2018-09-06T14:25:32.605Z,26.80
2018-09-06T14:28:00.400Z,26.85
2018-09-06T14:30:28.044Z,26.84
2018-09-06T14:32:55.932Z,26.82
2018-09-06T14:35:23.728Z,26.79
2018-09-06T14:37:51.568Z,26.76
2018-09-06T14:40:19.387Z,26.79
2018-09-06T14:42:47.031Z,26.78
2018-09-06T14:45:14.979Z,26.77
2018-09-06T14:47:42.900Z,26.80
2018-09-06T14:50:10.766Z,26.76
2018-09-06T14:52:38.559Z,26.78
2018-09-06T14:55:06.996Z,26.78
2018-09-06T14:57:34.186Z,26.74
2018-09-06T15:00:02.048Z,26.68
2018-09-06T15:02:29.756Z,26.67
2018-09-06T15:04:57.922Z,26.71
2018-09-06T15:07:25.875Z,26.76
2018-09-06T15:09:53.621Z,26.78
2018-09-06T15:12:21.559Z,26.68
2018-09-06T15:14:49.088Z,26.59
2018-09-06T15:17:16.960Z,26.56
2018-09-06T15:19:44.609Z,26.55
2018-09-06T15:22:12.368Z,26.51
2018-09-06T15:24:40.004Z,26.49
2018-09-06T15:27:07.314Z,26.42
2018-09-06T15:29:35.315Z,26.55
2018-09-06T15:32:02.912Z,26.55
2018-09-06T15:34:30.622Z,26.60
2018-09-06T15:36:58.307Z,26.61
2018-09-06T15:39:25.951Z,26.63
2018-09-06T15:41:53.611Z,26.55
2018-09-06T15:45:14.631Z,26.51
2018-09-06T15:47:42.433Z,26.47
2018-09-06T15:50:09.989Z,26.47
2018-09-06T15:52:37.736Z,26.40
2018-09-06T15:55:05.564Z,26.40
2018-09-06T15:57:33.116Z,26.35
2018-09-06T16:00:00.663Z,25.96
2018-09-06T16:02:27.950Z,26.01
2018-09-06T16:04:55.599Z,25.94
2018-09-06T16:07:23.326Z,25.98
2018-09-06T16:09:51.304Z,25.95
2018-09-06T16:12:18.870Z,25.69
2018-09-06T16:14:46.573Z,25.66
2018-09-06T16:17:14.223Z,25.61
2018-09-06T16:19:41.868Z,25.49
2018-09-06T16:22:09.975Z,25.35
2018-09-06T16:24:37.383Z,25.37
2018-09-06T16:27:04.954Z,25.47
2018-09-06T16:29:32.763Z,25.43
2018-09-06T16:32:00.467Z,25.36
2018-09-06T16:34:28.616Z,25.34
2018-09-06T16:36:56.431Z,25.37
2018-09-06T16:40:03.035Z,25.42
2018-09-06T16:42:30.871Z,25.10
2018-09-06T16:44:58.582Z,24.94
2018-09-06T16:47:26.303Z,24.88
2018-09-06T16:49:53.974Z,24.84
2018-09-06T16:52:21.773Z,24.71
2018-09-06T16:54:49.617Z,24.47
2018-09-06T16:59:25.748Z,24.42
2018-09-06T17:01:53.731Z,24.35
2018-09-06T17:04:21.799Z,24.36
2018-09-06T17:06:49.611Z,24.27
2018-09-06T17:09:17.383Z,24.27
2018-09-06T17:11:45.005Z,24.20
2018-09-06T17:14:13.299Z,24.09
2018-09-06T17:16:40.953Z,24.02
2018-09-06T17:19:08.833Z,24.14
2018-09-06T17:21:37.015Z,24.12
2018-09-06T17:24:04.990Z,24.13
2018-09-06T17:26:34.635Z,24.15
2018-09-06T17:29:02.561Z,23.98
2018-09-06T17:31:30.302Z,23.94
2018-09-06T17:33:58.023Z,23.89
2018-09-06T17:36:25.294Z,23.91
2018-09-06T17:39:07.023Z,23.88
2018-09-06T17:41:41.437Z,23.87
2018-09-06T17:44:09.072Z,23.88
2018-09-06T17:46:37.069Z,23.80
2018-09-06T17:49:05.375Z,23.72
2018-09-06T17:51:32.997Z,23.66
2018-09-06T17:54:00.298Z,23.63
2018-09-06T17:56:27.944Z,23.64
2018-09-06T17:58:55.719Z,23.53
2018-09-06T18:01:40.004Z,23.55
2018-09-06T18:04:07.589Z,23.40
2018-09-06T18:06:35.299Z,23.39
2018-09-06T18:09:07.621Z,23.26
2018-09-06T18:11:35.549Z,23.43
2018-09-06T18:14:03.503Z,23.39
2018-09-06T18:16:31.176Z,23.44
2018-09-06T18:18:58.476Z,23.30
2018-09-06T18:21:26.891Z,23.44
2018-09-06T18:23:55.452Z,23.16
2018-09-06T18:26:23.094Z,23.13
2018-09-06T18:28:50.739Z,22.98
2018-09-06T18:31:18.567Z,23.09
2018-09-06T18:33:46.353Z,23.06
2018-09-06T18:36:13.994Z,22.90
2018-09-06T18:38:42.201Z,23.02
2018-09-06T18:41:09.923Z,22.95
2018-09-06T18:43:37.790Z,22.80
2018-09-06T18:46:05.556Z,22.79
2018-09-06T18:48:33.295Z,22.76
2018-09-06T18:51:00.465Z,22.81
2018-09-06T18:53:28.044Z,22.90
2018-09-06T18:55:55.736Z,22.80
2018-09-06T18:58:23.547Z,22.32
2018-09-06T19:00:50.734Z,22.66
2018-09-06T19:03:18.563Z,22.80
2018-09-06T19:05:46.179Z,22.72
2018-09-06T19:08:13.290Z,22.64
2018-09-06T19:10:40.911Z,22.61
2018-09-06T19:13:08.642Z,22.71
2018-09-06T19:15:36.314Z,22.77
2018-09-06T19:18:04.179Z,22.80
2018-09-06T19:20:31.799Z,22.74
2018-09-06T19:22:59.724Z,22.79
2018-09-06T19:25:27.538Z,22.76
2018-09-06T19:27:55.498Z,22.72
2018-09-06T19:30:23.382Z,22.66
2018-09-06T19:32:51.287Z,22.67
2018-09-06T19:35:18.883Z,22.67
2018-09-06T19:37:46.892Z,22.64
2018-09-06T19:40:14.578Z,22.61
2018-09-06T19:42:42.422Z,22.59
2018-09-06T19:45:10.003Z,22.63
2018-09-06T19:47:37.739Z,22.63
2018-09-06T19:51:09.040Z,22.48
2018-09-06T19:53:36.622Z,22.55
2018-09-06T19:56:04.386Z,22.47
2018-09-06T19:58:32.027Z,22.56
2018-09-06T20:00:59.292Z,22.51
2018-09-06T20:03:26.920Z,22.49
2018-09-06T20:05:54.746Z,22.57
2018-09-06T20:08:22.595Z,22.51
2018-09-06T20:10:50.315Z,22.46
2018-09-06T20:13:17.983Z,22.44
2018-09-06T20:15:45.695Z,22.48
2018-09-06T20:18:13.492Z,22.48
2018-09-06T20:20:41.287Z,22.54
2018-09-06T20:23:09.162Z,22.96
2018-09-06T20:25:37.012Z,23.16
2018-09-06T20:28:05.415Z,23.22
2018-09-06T20:30:33.048Z,23.24
2018-09-06T20:33:01.024Z,23.26
2018-09-06T20:35:34.672Z,23.31
2018-09-06T20:38:02.614Z,23.31
2018-09-06T20:40:30.574Z,23.35
2018-09-06T20:42:58.574Z,23.41
2018-09-06T20:45:26.358Z,23.44
2018-09-06T20:47:54.008Z,23.50
2018-09-06T20:50:22.173Z,23.49
2018-09-06T20:52:49.940Z,23.53
2018-09-06T20:55:17.735Z,23.56
2018-09-06T20:57:46.050Z,23.58
2018-09-06T21:00:14.028Z,23.59
2018-09-06T21:02:42.007Z,23.65
2018-09-06T21:05:09.717Z,23.63
2018-09-06T21:07:37.571Z,23.78
2018-09-06T21:10:05.467Z,23.83
2018-09-06T21:12:32.749Z,23.83
2018-09-06T21:15:00.916Z,23.84
2018-09-06T21:20:35.189Z,24.20
2018-09-06T21:23:02.963Z,24.09
2018-09-06T21:25:30.920Z,24.01
2018-09-06T21:27:58.756Z,24.04
2018-09-06T21:30:26.616Z,24.03
2018-09-06T21:32:54.356Z,24.02
2018-09-06T21:38:29.567Z,24.04
2018-09-06T21:40:57.422Z,24.07
2018-09-06T21:43:25.047Z,24.11
2018-09-06T21:45:52.769Z,24.14
2018-09-06T21:48:20.484Z,24.14
2018-09-06T21:50:48.026Z,24.17
2018-09-06T21:53:15.728Z,24.20
2018-09-06T21:55:43.568Z,24.24
2018-09-06T21:58:11.323Z,24.22
2018-09-06T22:00:38.971Z,24.24
2018-09-06T22:03:12.538Z,24.08
2018-09-06T22:05:40.171Z,24.26
2018-09-06T22:08:07.782Z,24.30
2018-09-06T22:10:35.586Z,24.31
2018-09-06T22:13:03.415Z,24.33
2018-09-06T22:15:31.055Z,24.34
2018-09-06T22:17:58.791Z,24.33
2018-09-06T22:20:26.579Z,24.35
2018-09-06T22:22:54.299Z,24.40
2018-09-06T22:25:21.954Z,24.41
2018-09-06T22:27:49.594Z,24.43
2018-09-06T22:30:17.427Z,24.44
2018-09-06T22:32:45.006Z,24.45
2018-09-06T22:39:02.950Z,24.54
2018-09-06T22:41:30.731Z,24.52
2018-09-06T22:43:58.766Z,24.54
2018-09-06T22:46:26.609Z,24.53
2018-09-06T22:48:54.454Z,24.59
2018-09-06T22:51:22.290Z,24.60
2018-09-06T22:53:49.451Z,24.60
2018-09-06T22:56:17.290Z,24.63
2018-09-06T22:58:45.163Z,24.65
2018-09-06T23:01:12.923Z,24.69
2018-09-06T23:03:42.733Z,24.69
2018-09-06T23:06:10.478Z,24.67
2018-09-06T23:08:38.570Z,24.67
2018-09-06T23:11:06.291Z,24.69
2018-09-06T23:13:33.981Z,24.69
2018-09-06T23:16:01.201Z,24.71
2018-09-06T23:18:28.886Z,24.69
2018-09-06T23:20:56.999Z,24.68
2018-09-06T23:23:24.178Z,24.68
2018-09-06T23:25:52.035Z,24.63
2018-09-06T23:28:19.895Z,24.66
2018-09-06T23:30:47.639Z,24.67
2018-09-06T23:33:15.410Z,24.66
2018-09-06T23:35:44.531Z,24.67
2018-09-06T23:38:14.567Z,24.65
2018-09-06T23:40:48.042Z,24.66
2018-09-06T23:43:15.734Z,24.69
2018-09-06T23:45:43.511Z,24.66
2018-09-06T23:48:11.380Z,24.66
2018-09-06T23:50:38.995Z,24.65
2018-09-06T23:53:06.480Z,24.57
2018-09-06T23:55:34.031Z,24.64
2018-09-06T23:58:01.707Z,24.64
